Time;durP1;ratioP1;P1;durP2;ratioP2;P2;SDS_P1;SDS_P2;PMS_P1;PMS_P2;Temp;Humidity;BMP_temperature;BMP_pressure;BME280_temperature;BME280_humidity;BME280_pressure;Samples;Min_cycle;Max_cycle;Signal;HPM_P1;HPM_P2
2024/04/26 00:01:09;;;;;;;1.50;1.20;;;9.00;97.90;;;;;;5288372;26;20834;-75
2024/04/26 00:03:37;;;;;;;1.50;1.20;;;8.90;97.70;;;;;;5290380;26;20560;-75
2024/04/26 00:06:09;;;;;;;1.47;1.10;;;8.90;97.70;;;;;;5287544;26;20573;-75
2024/04/26 00:08:40;;;;;;;1.50;1.20;;;9.00;97.80;;;;;;5264111;26;20586;-75
2024/04/26 00:11:09;;;;;;;1.47;1.20;;;8.90;97.50;;;;;;5277553;26;21102;-75
2024/04/26 00:13:37;;;;;;;1.50;1.20;;;8.90;97.40;;;;;;5287199;26;20579;-75
2024/04/26 00:16:06;;;;;;;1.50;1.30;;;8.90;97.10;;;;;;5288725;26;20593;-75
2024/04/26 00:18:34;;;;;;;1.50;1.20;;;9.00;96.80;;;;;;5307225;26;20506;-75
2024/04/26 00:21:03;;;;;;;1.50;1.20;;;8.90;96.90;;;;;;5291995;26;20555;-76
2024/04/26 00:23:35;;;;;;;1.50;1.20;;;9.00;96.90;;;;;;5297615;26;20522;-75
2024/04/26 00:26:08;;;;;;;1.47;1.10;;;8.90;96.30;;;;;;5291011;26;20704;-76
2024/04/26 00:28:37;;;;;;;1.43;1.13;;;9.00;96.30;;;;;;5299166;26;20836;-75
2024/04/26 00:31:06;;;;;;;1.47;1.20;;;9.00;96.30;;;;;;5287025;26;20591;-75
2024/04/26 00:33:34;;;;;;;1.47;1.10;;;9.00;95.80;;;;;;5299128;26;20535;-75
2024/04/26 00:36:03;;;;;;;1.50;1.10;;;9.00;95.70;;;;;;5288262;26;20479;-76
2024/04/26 00:38:34;;;;;;;1.47;1.10;;;9.00;95.70;;;;;;5303476;26;20599;-75
2024/04/26 00:41:02;;;;;;;1.50;1.10;;;9.00;95.70;;;;;;5290623;26;20479;-76
2024/04/26 00:43:30;;;;;;;1.47;1.20;;;9.00;96.10;;;;;;5288459;26;20539;-75
2024/04/26 00:45:59;;;;;;;1.50;1.20;;;9.10;96.00;;;;;;5283590;26;20481;-76
2024/04/26 00:48:28;;;;;;;1.50;1.20;;;9.00;95.60;;;;;;5299984;26;20819;-76
2024/04/26 00:50:56;;;;;;;1.47;1.10;;;9.00;95.80;;;;;;5279415;26;20482;-75
2024/04/26 00:53:25;;;;;;;1.50;1.20;;;9.10;95.60;;;;;;5274156;26;20568;-76
2024/04/26 00:55:56;;;;;;;1.50;1.20;;;9.10;95.70;;;;;;5282488;26;20583;-76
2024/04/26 00:58:25;;;;;;;1.50;1.10;;;9.10;95.60;;;;;;5295271;26;20535;-76
2024/04/26 01:00:53;;;;;;;1.50;1.17;;;9.10;95.60;;;;;;5282139;26;20775;-75
2024/04/26 01:03:22;;;;;;;1.43;1.20;;;9.10;95.50;;;;;;5271151;26;20666;-76
2024/04/26 01:05:50;;;;;;;1.47;1.10;;;9.10;95.70;;;;;;5271735;26;20822;-75
2024/04/26 01:08:18;;;;;;;1.50;1.20;;;9.10;95.40;;;;;;5273449;26;20519;-75
2024/04/26 01:10:47;;;;;;;1.47;1.20;;;9.10;95.90;;;;;;5289836;26;20476;-75
2024/04/26 01:13:18;;;;;;;2.03;1.83;;;9.10;95.80;;;;;;5255265;26;20555;-76
2024/04/26 01:15:47;;;;;;;1.50;1.10;;;9.10;96.00;;;;;;5293716;26;20484;-75
2024/04/26 01:18:15;;;;;;;1.50;1.23;;;9.10;95.80;;;;;;5282142;26;20603;-76
2024/04/26 01:20:44;;;;;;;1.50;1.20;;;9.00;96.00;;;;;;5291664;26;20822;-77
2024/04/26 01:23:12;;;;;;;1.50;1.20;;;9.00;96.40;;;;;;5268638;26;20507;-76
2024/04/26 01:25:54;;;;;;;1.43;1.10;;;9.00;96.60;;;;;;5295254;26;21193;-75
2024/04/26 01:28:22;;;;;;;1.50;1.30;;;9.00;96.90;;;;;;5255081;26;20483;-76
2024/04/26 01:30:51;;;;;;;1.50;1.10;;;9.00;97.10;;;;;;5283753;26;20479;-76
2024/04/26 01:33:19;;;;;;;1.50;1.20;;;9.00;97.40;;;;;;5279821;26;20495;-75
2024/04/26 01:35:48;;;;;;;1.50;1.20;;;8.90;97.50;;;;;;5292536;26;20491;-76
2024/04/26 01:38:16;;;;;;;1.47;1.20;;;8.90;97.70;;;;;;5298436;26;20575;-76
2024/04/26 01:40:47;;;;;;;1.50;1.20;;;8.90;98.10;;;;;;5292375;26;20582;-75
2024/04/26 01:43:16;;;;;;;1.50;1.20;;;8.80;98.10;;;;;;5256773;26;20562;-77
2024/04/26 01:45:44;;;;;;;1.47;1.10;;;8.80;98.20;;;;;;5294932;26;20543;-76
2024/04/26 01:48:10;;;;;;;1.50;1.30;;;8.80;98.20;;;;;;5257213;26;20655;-75
2024/04/26 01:50:39;;;;;;;1.50;1.17;;;8.70;98.20;;;;;;5292469;26;20464;-76
2024/04/26 01:53:07;;;;;;;1.50;1.30;;;8.70;98.20;;;;;;5255084;27;20922;-76
2024/04/26 01:55:33;;;;;;;1.50;1.20;;;8.70;98.20;;;;;;5291583;26;21088;-76
2024/04/26 01:58:04;;;;;;;1.47;1.20;;;8.70;98.20;;;;;;5261334;26;20607;-75
2024/04/26 02:00:30;;;;;;;1.50;1.20;;;8.70;98.20;;;;;;5294015;26;20371;-76
2024/04/26 02:02:58;;;;;;;1.50;1.30;;;8.70;98.20;;;;;;5268547;26;21024;-77
2024/04/26 02:05:24;;;;;;;1.50;1.20;;;8.70;98.20;;;;;;5294437;26;20292;-77
2024/04/26 02:07:52;;;;;;;1.50;1.30;;;8.60;98.20;;;;;;5288074;26;21153;-75
2024/04/26 02:10:18;;;;;;;1.50;1.23;;;8.60;98.20;;;;;;5289771;26;20366;-77
2024/04/26 02:12:48;;;;;;;1.43;1.20;;;8.60;98.20;;;;;;5270736;26;21045;-76
2024/04/26 02:15:16;;;;;;;1.47;1.20;;;8.60;98.20;;;;;;5295056;26;20726;-77
2024/04/26 02:17:45;;;;;;;1.73;1.63;;;8.50;98.20;;;;;;5259613;26;20504;-75
2024/04/26 02:20:10;;;;;;;1.50;1.10;;;8.50;98.20;;;;;;5290325;26;20480;-76
2024/04/26 02:22:39;;;;;;;1.50;1.30;;;8.50;98.20;;;;;;5268434;26;20620;-77
2024/04/26 02:25:05;;;;;;;1.47;1.20;;;8.50;98.20;;;;;;5293135;26;20364;-77
2024/04/26 02:27:33;;;;;;;1.47;1.20;;;8.50;98.20;;;;;;5267181;26;21098;-77
2024/04/26 02:30:02;;;;;;;1.40;1.20;;;8.50;98.20;;;;;;5289418;26;20618;-76
2024/04/26 02:32:33;;;;;;;1.50;1.20;;;8.50;98.20;;;;;;5290111;26;20675;-76
2024/04/26 02:35:01;;;;;;;1.47;1.20;;;8.50;98.20;;;;;;5283048;26;21077;-76
2024/04/26 02:37:29;;;;;;;1.50;1.30;;;8.50;98.20;;;;;;5280929;26;20515;-77
2024/04/26 02:39:58;;;;;;;1.50;1.30;;;8.50;98.20;;;;;;5296676;26;20566;-77
2024/04/26 02:42:26;;;;;;;1.50;1.30;;;8.50;98.20;;;;;;5287320;26;20625;-77
2024/04/26 02:44:54;;;;;;;1.50;1.13;;;8.50;98.20;;;;;;5291648;26;21131;-76
2024/04/26 02:47:24;;;;;;;1.50;1.20;;;8.50;98.20;;;;;;5292130;26;20609;-76
2024/04/26 02:49:55;;;;;;;1.47;1.20;;;8.50;98.20;;;;;;5290456;26;20886;-76
2024/04/26 02:52:24;;;;;;;1.47;1.10;;;8.50;98.20;;;;;;5288783;26;20503;-75
2024/04/26 02:54:52;;;;;;;1.50;1.10;;;8.50;98.20;;;;;;5298819;26;20475;-76
2024/04/26 02:57:21;;;;;;;1.50;1.20;;;8.40;98.20;;;;;;5283884;26;20617;-76
2024/04/26 02:59:49;;;;;;;1.50;1.20;;;8.40;98.20;;;;;;5292910;26;20540;-76
2024/04/26 03:02:20;;;;;;;1.50;1.20;;;8.40;98.20;;;;;;5284826;26;20626;-76
2024/04/26 03:04:48;;;;;;;1.50;1.20;;;8.40;98.20;;;;;;5295482;26;20479;-76
2024/04/26 03:07:19;;;;;;;1.60;1.20;;;8.40;98.20;;;;;;5285302;26;20958;-76
2024/04/26 03:09:49;;;;;;;1.50;1.10;;;8.40;98.20;;;;;;5287217;26;20881;-75
2024/04/26 03:12:17;;;;;;;1.47;1.20;;;8.40;98.20;;;;;;5286331;26;20510;-75
2024/04/26 03:14:46;;;;;;;1.50;1.20;;;8.40;98.20;;;;;;5284749;26;20529;-76
2024/04/26 03:17:14;;;;;;;1.50;1.20;;;8.40;98.20;;;;;;5282754;26;20515;-76
2024/04/26 03:19:43;;;;;;;1.50;1.20;;;8.40;98.20;;;;;;5281590;26;20583;-73
2024/04/26 03:22:11;;;;;;;1.50;1.20;;;8.40;98.20;;;;;;5280441;26;21160;-76
2024/04/26 03:24:43;;;;;;;1.47;1.20;;;8.40;98.20;;;;;;5294106;26;20543;-75
2024/04/26 03:27:11;;;;;;;1.43;1.20;;;8.40;98.20;;;;;;5274970;26;20503;-76
2024/04/26 03:29:40;;;;;;;1.50;1.13;;;8.40;98.20;;;;;;5293146;26;20479;-76
2024/04/26 03:32:08;;;;;;;1.50;1.20;;;8.30;98.20;;;;;;5277429;26;20496;-76
2024/04/26 03:34:37;;;;;;;1.50;1.30;;;8.30;98.20;;;;;;5288634;26;20594;-75
2024/04/26 03:37:05;;;;;;;1.50;1.20;;;8.40;98.20;;;;;;5287166;26;20506;-75
2024/04/26 03:39:33;;;;;;;1.50;1.30;;;8.40;98.20;;;;;;5301825;26;20485;-76
2024/04/26 03:42:05;;;;;;;1.43;1.10;;;8.40;98.20;;;;;;5283275;26;20654;-75
2024/04/26 03:44:33;;;;;;;1.50;1.30;;;8.40;98.20;;;;;;5288354;26;20632;-75
2024/04/26 03:47:01;;;;;;;1.50;1.23;;;8.40;98.20;;;;;;5279695;26;20905;-75
2024/04/26 03:49:30;;;;;;;1.50;1.20;;;8.40;98.20;;;;;;5290522;26;20539;-75
2024/04/26 03:51:58;;;;;;;1.60;1.43;;;8.40;98.20;;;;;;5272934;26;20571;-76
2024/04/26 03:54:27;;;;;;;1.47;1.20;;;8.40;98.20;;;;;;5290265;26;20471;-75
2024/04/26 03:56:55;;;;;;;1.50;1.30;;;8.40;98.20;;;;;;5271891;26;20512;-76
2024/04/26 03:59:26;;;;;;;1.50;1.23;;;8.40;98.20;;;;;;5288369;26;20474;-75
2024/04/26 04:01:55;;;;;;;1.50;1.30;;;8.40;98.20;;;;;;5283057;26;20587;-73
2024/04/26 04:04:23;;;;;;;1.50;1.20;;;8.40;98.20;;;;;;5290543;26;20560;-76
2024/04/26 04:06:52;;;;;;;1.50;1.20;;;8.40;98.20;;;;;;5280379;26;20826;-74
2024/04/26 04:09:20;;;;;;;1.50;1.20;;;8.40;98.20;;;;;;5302546;26;20602;-73
2024/04/26 04:11:49;;;;;;;1.50;1.20;;;8.40;98.20;;;;;;5276066;26;20520;-74
2024/04/26 04:14:17;;;;;;;1.43;1.10;;;8.40;98.20;;;;;;5286273;26;20906;-75
2024/04/26 04:16:48;;;;;;;1.50;1.30;;;8.40;98.20;;;;;;5281285;26;20500;-74
2024/04/26 04:19:17;;;;;;;1.50;1.20;;;8.40;98.20;;;;;;5302793;26;20475;-75
2024/04/26 04:21:45;;;;;;;1.50;1.20;;;8.40;98.20;;;;;;5285860;26;20507;-74
2024/04/26 04:24:13;;;;;;;1.57;1.47;;;8.40;98.20;;;;;;5290133;26;20484;-74
2024/04/26 04:26:42;;;;;;;1.47;1.10;;;8.40;98.20;;;;;;5281640;26;20996;-73
2024/04/26 04:29:10;;;;;;;1.50;1.20;;;8.40;98.20;;;;;;5294458;26;20565;-74
2024/04/26 04:31:39;;;;;;;1.50;1.20;;;8.40;98.20;;;;;;5277300;26;20507;-74
2024/04/26 04:34:10;;;;;;;1.50;1.20;;;8.40;98.20;;;;;;5282888;26;20967;-74
2024/04/26 04:36:38;;;;;;;1.47;1.20;;;8.40;98.20;;;;;;5277627;26;20517;-74
2024/04/26 04:39:07;;;;;;;1.50;1.20;;;8.40;98.20;;;;;;5302269;26;20590;-74
2024/04/26 04:41:35;;;;;;;1.40;1.20;;;8.50;98.20;;;;;;5285668;26;21069;-75
2024/04/26 04:44:04;;;;;;;1.50;1.20;;;8.40;98.20;;;;;;5292507;26;20849;-73
2024/04/26 04:46:32;;;;;;;1.50;1.20;;;8.50;98.20;;;;;;5282764;26;20507;-74
2024/04/26 04:49:01;;;;;;;1.50;1.40;;;8.50;98.20;;;;;;5294808;26;20521;-74
2024/04/26 04:51:32;;;;;;;1.50;1.20;;;8.50;98.20;;;;;;5271395;26;20495;-74
2024/04/26 04:54:01;;;;;;;1.50;1.20;;;8.50;98.20;;;;;;5288506;26;21050;-74
2024/04/26 04:56:29;;;;;;;1.50;1.20;;;8.50;98.20;;;;;;5283109;26;20583;-74
2024/04/26 04:58:58;;;;;;;1.47;1.20;;;8.60;98.20;;;;;;5293196;26;20540;-74
2024/04/26 05:01:26;;;;;;;1.47;1.20;;;8.60;98.20;;;;;;5284392;26;20885;-73
2024/04/26 05:03:55;;;;;;;1.50;1.30;;;8.60;98.20;;;;;;5302167;26;20623;-75
2024/04/26 05:06:25;;;;;;;1.40;1.10;;;8.60;98.20;;;;;;5291009;26;20503;-73
2024/04/26 05:08:56;;;;;;;1.50;1.20;;;8.70;98.20;;;;;;5311326;26;20476;-74
2024/04/26 05:11:24;;;;;;;1.40;1.10;;;8.80;98.20;;;;;;5275020;26;20502;-75
2024/04/26 05:13:52;;;;;;;1.47;1.10;;;8.80;98.20;;;;;;5312243;26;20472;-76
2024/04/26 05:16:21;;;;;;;1.50;1.10;;;8.80;98.20;;;;;;5268807;26;20829;-75
2024/04/26 05:18:49;;;;;;;1.40;1.10;;;8.90;98.20;;;;;;5307955;26;20483;-75
2024/04/26 05:21:18;;;;;;;1.47;1.10;;;8.90;98.20;;;;;;5275782;26;20497;-75
2024/04/26 05:23:46;;;;;;;1.50;1.30;;;8.90;98.20;;;;;;5256089;26;20477;-75
2024/04/26 05:26:17;;;;;;;1.43;1.10;;;9.00;98.20;;;;;;5277378;26;20665;-74
2024/04/26 05:28:46;;;;;;;1.50;1.20;;;9.00;98.20;;;;;;5276462;26;20598;-74
2024/04/26 05:31:14;;;;;;;1.50;1.30;;;9.00;98.20;;;;;;5276694;26;20600;-75
2024/04/26 05:33:42;;;;;;;1.47;1.10;;;9.00;98.20;;;;;;5301767;26;20559;-76
2024/04/26 05:36:11;;;;;;;1.50;1.20;;;9.00;98.20;;;;;;5273349;26;20853;-75
2024/04/26 05:38:39;;;;;;;1.40;1.10;;;9.10;98.20;;;;;;5287675;26;20614;-76
2024/04/26 05:41:07;;;;;;;1.50;1.20;;;9.10;98.20;;;;;;5268389;26;23187;-74
2024/04/26 05:43:39;;;;;;;1.50;1.20;;;9.10;98.20;;;;;;5291163;26;20594;-76
2024/04/26 05:46:10;;;;;;;1.50;1.20;;;9.10;98.20;;;;;;5268308;26;20481;-76
2024/04/26 05:48:39;;;;;;;1.43;1.20;;;9.20;98.20;;;;;;5293492;26;20755;-75
2024/04/26 05:51:13;;;;;;;1.50;1.10;;;9.30;98.20;;;;;;5266771;26;21129;-75
2024/04/26 05:53:42;;;;;;;1.47;1.10;;;9.30;98.20;;;;;;5286502;26;20599;-75
2024/04/26 05:56:11;;;;;;;1.50;1.20;;;9.40;98.20;;;;;;5267851;26;20503;-74
2024/04/26 05:58:42;;;;;;;1.50;1.20;;;9.50;98.20;;;;;;5292977;26;21004;-75
2024/04/26 06:01:10;;;;;;;1.50;1.20;;;9.50;98.20;;;;;;5265114;26;20982;-75
2024/04/26 06:03:39;;;;;;;1.50;1.13;;;9.60;98.20;;;;;;5296956;26;20555;-75
2024/04/26 06:06:09;;;;;;;1.50;1.20;;;9.70;98.20;;;;;;5265356;26;21066;-74
2024/04/26 06:08:38;;;;;;;1.47;1.10;;;9.70;98.20;;;;;;5297598;26;20480;-75
2024/04/26 06:11:07;;;;;;;1.50;1.10;;;9.70;98.20;;;;;;5267345;26;20628;-75
2024/04/26 06:13:36;;;;;;;1.47;1.10;;;9.80;98.20;;;;;;5276336;26;20461;-75
2024/04/26 06:16:09;;;;;;;1.97;1.87;;;9.80;98.20;;;;;;5273262;26;20479;-75
2024/04/26 06:18:38;;;;;;;1.43;1.10;;;9.80;98.20;;;;;;5286625;26;20484;-74
2024/04/26 06:21:07;;;;;;;1.50;1.20;;;9.90;98.20;;;;;;5262205;26;20482;-74
2024/04/26 06:23:35;;;;;;;1.47;1.10;;;9.90;98.20;;;;;;5288169;26;21119;-75
2024/04/26 06:26:03;;;;;;;1.47;1.13;;;10.00;98.20;;;;;;5277810;26;20476;-74
2024/04/26 06:28:32;;;;;;;1.50;1.10;;;10.00;98.20;;;;;;5279277;26;20606;-75
2024/04/26 06:31:00;;;;;;;1.50;1.10;;;10.10;98.20;;;;;;5273264;26;21792;-75
2024/04/26 06:33:31;;;;;;;1.47;1.10;;;10.10;98.20;;;;;;5303781;26;20483;-75
2024/04/26 06:36:00;;;;;;;1.50;1.20;;;10.20;98.20;;;;;;5264006;26;20592;-75
2024/04/26 06:38:28;;;;;;;1.50;1.10;;;10.30;98.20;;;;;;5296045;26;20862;-76
2024/04/26 06:40:57;;;;;;;1.50;1.10;;;10.30;98.20;;;;;;5269622;26;20531;-74
2024/04/26 06:43:26;;;;;;;1.50;1.10;;;10.30;98.20;;;;;;5294772;26;20516;-76
2024/04/26 06:45:54;;;;;;;1.50;1.20;;;10.40;98.20;;;;;;5276959;26;20886;-75
2024/04/26 06:48:23;;;;;;;1.50;1.17;;;10.50;98.20;;;;;;5283460;26;21152;-76
2024/04/26 06:50:54;;;;;;;1.47;1.10;;;10.50;98.20;;;;;;5276768;26;20479;-75
2024/04/26 06:53:23;;;;;;;1.50;1.10;;;10.60;98.20;;;;;;5285042;26;20533;-75
2024/04/26 06:55:51;;;;;;;1.50;1.10;;;10.70;98.20;;;;;;5267291;26;20649;-76
2024/04/26 06:58:19;;;;;;;1.50;1.27;;;10.70;98.20;;;;;;5289663;26;20483;-76
2024/04/26 07:00:48;;;;;;;1.50;1.10;;;10.80;98.20;;;;;;5283209;26;20487;-75
2024/04/26 07:03:18;;;;;;;1.47;1.00;;;10.90;98.20;;;;;;5290291;26;20522;-75
2024/04/26 07:05:46;;;;;;;1.50;1.10;;;11.00;98.20;;;;;;5276620;26;20481;-75
2024/04/26 07:08:17;;;;;;;1.47;1.00;;;11.10;98.20;;;;;;5235020;26;20537;-76
2024/04/26 07:10:46;;;;;;;1.50;1.10;;;11.10;98.20;;;;;;5285535;26;21153;-74
2024/04/26 07:13:15;;;;;;;1.50;1.10;;;11.20;98.20;;;;;;5291835;26;20590;-76
2024/04/26 07:15:43;;;;;;;1.50;1.10;;;11.30;98.20;;;;;;5275026;26;20581;-74
2024/04/26 07:18:12;;;;;;;1.50;1.10;;;11.30;98.20;;;;;;5279074;26;20492;-75
2024/04/26 07:20:40;;;;;;;1.50;1.00;;;11.40;98.20;;;;;;5282783;26;20598;-74
2024/04/26 07:23:10;;;;;;;1.50;1.10;;;11.40;98.20;;;;;;5272317;26;20609;-76
2024/04/26 07:25:41;;;;;;;1.50;1.10;;;11.50;98.20;;;;;;5292312;26;21005;-75
2024/04/26 07:28:10;;;;;;;1.43;1.00;;;11.60;98.20;;;;;;5286148;26;20499;-76
2024/04/26 07:30:40;;;;;;;1.50;1.30;;;11.80;98.20;;;;;;5281166;26;20880;-76
2024/04/26 07:33:09;;;;;;;1.50;1.00;;;11.80;98.10;;;;;;5282526;26;20566;-76
2024/04/26 07:35:37;;;;;;;1.50;1.00;;;12.00;98.20;;;;;;5288326;26;21092;-75
2024/04/26 07:38:06;;;;;;;1.50;1.00;;;12.10;97.30;;;;;;5264554;27;20604;-75
2024/04/26 07:40:34;;;;;;;1.50;1.00;;;12.10;97.40;;;;;;5282424;26;20465;-76
2024/04/26 07:43:05;;;;;;;1.47;1.00;;;12.20;97.80;;;;;;5281394;26;20590;-76
2024/04/26 07:45:34;;;;;;;1.47;1.00;;;12.20;97.40;;;;;;5283598;26;21160;-76
2024/04/26 07:48:02;;;;;;;1.50;1.00;;;12.30;97.20;;;;;;5276566;26;21077;-75
2024/04/26 07:50:30;;;;;;;1.50;1.00;;;12.30;97.20;;;;;;5286808;26;21065;-75
2024/04/26 07:52:59;;;;;;;1.50;1.10;;;12.30;96.10;;;;;;5279095;26;20618;-75
2024/04/26 07:55:27;;;;;;;1.50;1.20;;;12.20;96.80;;;;;;5290204;26;20546;-75
2024/04/26 07:57:56;;;;;;;1.50;1.10;;;12.20;97.00;;;;;;5277775;26;20872;-76
2024/04/26 08:00:27;;;;;;;1.50;1.10;;;12.30;97.50;;;;;;5282854;26;20461;-75
2024/04/26 08:02:55;;;;;;;1.50;1.10;;;12.40;97.10;;;;;;5280871;26;20583;-75
2024/04/26 08:05:24;;;;;;;1.50;1.10;;;12.40;97.60;;;;;;5295584;26;20554;-76
2024/04/26 08:07:52;;;;;;;1.50;1.20;;;12.40;97.20;;;;;;5262386;26;20615;-74
2024/04/26 08:10:20;;;;;;;1.50;1.10;;;12.50;97.20;;;;;;5291778;26;20982;-75
2024/04/26 08:12:49;;;;;;;1.47;1.00;;;12.50;96.50;;;;;;5262678;26;20560;-75
2024/04/26 08:15:18;;;;;;;1.50;1.00;;;12.50;95.80;;;;;;5287189;26;20490;-75
2024/04/26 08:17:49;;;;;;;1.50;0.90;;;12.60;96.10;;;;;;5280781;26;20699;-74
2024/04/26 08:20:17;;;;;;;1.50;1.10;;;12.70;97.00;;;;;;5282492;26;21018;-76
2024/04/26 08:22:46;;;;;;;1.50;1.10;;;12.80;96.30;;;;;;5269336;26;20498;-75
2024/04/26 08:25:14;;;;;;;1.47;1.00;;;13.00;95.90;;;;;;5289619;26;20487;-76
2024/04/26 08:27:42;;;;;;;1.60;1.40;;;13.10;95.70;;;;;;5254660;26;20512;-76
2024/04/26 08:30:11;;;;;;;1.43;1.00;;;13.20;95.40;;;;;;5282136;26;21168;-76
2024/04/26 08:32:39;;;;;;;1.50;1.00;;;13.30;95.50;;;;;;5282868;26;20527;-76
2024/04/26 08:35:11;;;;;;;1.50;1.10;;;13.30;95.30;;;;;;5278393;26;20540;-75
2024/04/26 08:37:40;;;;;;;1.70;1.43;;;13.30;95.70;;;;;;5276056;26;20530;-76
2024/04/26 08:40:09;;;;;;;1.47;1.00;;;13.30;97.10;;;;;;5287739;26;20464;-77
2024/04/26 08:42:38;;;;;;;1.47;1.00;;;13.30;96.80;;;;;;5267414;26;20620;-76
2024/04/26 08:45:08;;;;;;;1.40;1.00;;;13.30;98.00;;;;;;5289170;26;21023;-77
2024/04/26 08:47:38;;;;;;;1.50;1.00;;;13.30;98.20;;;;;;5277238;26;20586;-76
2024/04/26 08:50:07;;;;;;;1.50;1.00;;;13.20;98.20;;;;;;5283569;26;20593;-75
2024/04/26 08:52:40;;;;;;;1.50;1.10;;;13.10;98.20;;;;;;5283510;26;20571;-76
2024/04/26 08:55:09;;;;;;;1.50;1.00;;;13.10;98.20;;;;;;5278905;26;20574;-76
2024/04/26 08:57:38;;;;;;;1.43;1.00;;;13.10;98.20;;;;;;5275105;26;20679;-76
2024/04/26 09:00:08;;;;;;;1.50;1.00;;;13.10;98.20;;;;;;5350251;21;21247;-82
2024/04/26 09:02:39;;;;;;;1.40;1.00;;;13.10;98.20;;;;;;5347935;26;20505;-82
2024/04/26 09:05:10;;;;;;;1.50;1.00;;;13.10;98.20;;;;;;5360998;26;20462;-82
2024/04/26 09:07:41;;;;;;;1.40;1.00;;;13.00;98.20;;;;;;5348131;26;20497;-81
2024/04/26 09:10:10;;;;;;;1.47;1.00;;;13.00;98.20;;;;;;5362455;26;20496;-81
2024/04/26 09:12:38;;;;;;;1.50;1.10;;;13.00;98.20;;;;;;5327016;26;20499;-82
2024/04/26 09:15:07;;;;;;;1.47;0.93;;;12.90;98.20;;;;;;5358079;26;20478;-81
2024/04/26 09:17:35;;;;;;;1.47;1.03;;;12.90;98.20;;;;;;5350615;26;20502;-81
2024/04/26 09:20:05;;;;;;;1.50;1.00;;;12.90;98.20;;;;;;5369339;26;20524;-82
2024/04/26 09:22:37;;;;;;;1.50;1.10;;;12.90;98.20;;;;;;5360303;26;20492;-80
2024/04/26 09:25:08;;;;;;;1.50;1.00;;;12.90;98.20;;;;;;5359016;26;20477;-81
2024/04/26 09:27:37;;;;;;;1.50;1.00;;;12.90;98.20;;;;;;5354805;26;20543;-81
2024/04/26 09:30:06;;;;;;;1.50;1.10;;;13.00;98.20;;;;;;5358316;26;20576;-80
2024/04/26 09:32:35;;;;;;;1.50;1.00;;;12.90;98.20;;;;;;5361055;26;20552;-80
2024/04/26 09:35:05;;;;;;;1.43;1.00;;;12.80;98.20;;;;;;5364700;26;20468;-81
2024/04/26 09:37:36;;;;;;;1.50;1.07;;;12.80;98.20;;;;;;5361749;26;21226;-79
2024/04/26 09:40:05;;;;;;;1.47;1.00;;;12.80;98.20;;;;;;5356925;26;20474;-83
2024/04/26 09:42:37;;;;;;;1.43;1.00;;;12.80;98.20;;;;;;5340177;26;21127;-81
2024/04/26 09:45:07;;;;;;;1.43;1.00;;;12.80;98.20;;;;;;5366330;26;20481;-81
2024/04/26 09:47:36;;;;;;;1.47;1.00;;;12.80;98.20;;;;;;5356586;26;20537;-80
2024/04/26 09:50:05;;;;;;;1.47;1.00;;;12.90;98.20;;;;;;5357604;26;20485;-80
2024/04/26 09:52:35;;;;;;;1.50;1.10;;;13.00;98.20;;;;;;5335190;26;20482;-80
2024/04/26 09:55:04;;;;;;;1.50;0.93;;;13.00;98.20;;;;;;5361055;26;20599;-81
2024/04/26 09:57:35;;;;;;;1.47;1.00;;;13.00;98.20;;;;;;5358325;26;20869;-82
2024/04/26 10:00:04;;;;;;;1.47;1.00;;;13.10;98.20;;;;;;5361104;26;20533;-80
2024/04/26 10:02:33;;;;;;;1.47;1.00;;;13.00;98.20;;;;;;5329335;26;20497;-80
2024/04/26 10:05:02;;;;;;;1.47;1.07;;;13.00;98.20;;;;;;5355509;26;20620;-79
2024/04/26 10:07:31;;;;;;;1.50;1.00;;;13.00;98.20;;;;;;5360364;26;20535;-81
2024/04/26 10:10:00;;;;;;;1.50;1.10;;;13.00;98.20;;;;;;5360085;26;21111;-81
2024/04/26 10:12:30;;;;;;;1.50;1.00;;;13.00;98.20;;;;;;5353166;26;20535;-79
2024/04/26 10:15:14;;;;;;;1.50;1.00;;;13.10;98.20;;;;;;5367587;26;20465;-81
2024/04/26 10:17:50;;;;;;;1.50;1.10;;;13.10;98.20;;;;;;5355665;26;20484;-81
2024/04/26 10:20:20;;;;;;;1.47;0.90;;;13.20;98.20;;;;;;5363207;26;20477;-81
2024/04/26 10:22:49;;;;;;;1.47;0.93;;;13.20;98.20;;;;;;5359292;26;20583;-82
2024/04/26 10:25:25;;;;;;;1.50;1.00;;;13.30;98.20;;;;;;5361563;26;20546;-81
2024/04/26 10:27:53;;;;;;;1.50;1.00;;;13.30;98.20;;;;;;5350435;26;20852;-80
2024/04/26 10:30:26;;;;;;;1.43;1.00;;;13.30;98.20;;;;;;5364821;26;20600;-80
2024/04/26 10:32:59;;;;;;;1.50;1.00;;;13.40;98.20;;;;;;5362365;26;20610;-81
2024/04/26 10:35:27;;;;;;;1.47;0.90;;;13.40;98.20;;;;;;5365712;26;20478;-81
2024/04/26 10:37:59;;;;;;;1.50;1.10;;;13.50;98.20;;;;;;5359998;26;20543;-80
2024/04/26 10:40:28;;;;;;;1.50;1.00;;;13.50;98.20;;;;;;5358050;26;20478;-81
2024/04/26 10:42:57;;;;;;;1.43;0.90;;;13.60;98.20;;;;;;5348207;26;21236;-81
2024/04/26 10:45:28;;;;;;;1.50;1.10;;;13.60;98.20;;;;;;5363773;26;20460;-82
2024/04/26 10:47:57;;;;;;;1.50;1.00;;;13.70;98.20;;;;;;5358958;26;20485;-82
2024/04/26 10:50:26;;;;;;;1.50;0.97;;;13.90;98.20;;;;;;5369669;26;20488;-82
2024/04/26 10:52:55;;;;;;;1.50;1.10;;;14.00;98.20;;;;;;5360966;26;21065;-81
2024/04/26 10:55:24;;;;;;;1.50;1.03;;;14.20;97.40;;;;;;5353793;26;20528;-79
2024/04/26 10:57:59;;;;;;;1.40;1.00;;;14.30;97.60;;;;;;5355866;26;20545;-81
2024/04/26 11:00:39;;;;;;;1.50;1.00;;;14.40;96.20;;;;;;5367511;26;21221;-81
2024/04/26 11:03:12;;;;;;;1.40;1.00;;;14.50;96.80;;;;;;5351043;26;20559;-80
2024/04/26 11:05:46;;;;;;;1.47;0.93;;;14.60;97.40;;;;;;5365502;26;20592;-80
2024/04/26 11:08:26;;;;;;;1.50;1.00;;;14.70;97.20;;;;;;5317388;26;20465;-81
2024/04/26 11:10:55;;;;;;;1.47;1.00;;;14.70;96.90;;;;;;5348121;26;20476;-80
2024/04/26 11:13:24;;;;;;;1.47;0.90;;;14.70;97.20;;;;;;5365793;26;20473;-80
2024/04/26 11:15:56;;;;;;;1.50;1.00;;;14.80;97.20;;;;;;5363349;26;20473;-81
2024/04/26 11:18:25;;;;;;;1.47;0.90;;;14.80;97.10;;;;;;5375399;26;20844;-81
2024/04/26 11:20:54;;;;;;;1.50;0.97;;;14.90;97.00;;;;;;5345269;26;20482;-81
2024/04/26 11:23:23;;;;;;;1.47;1.00;;;14.90;95.50;;;;;;5368630;26;20469;-80
2024/04/26 11:25:52;;;;;;;1.50;1.00;;;15.00;96.40;;;;;;5357516;26;20485;-85
2024/04/26 11:28:20;;;;;;;1.43;0.90;;;15.00;96.40;;;;;;5364420;26;20480;-83
2024/04/26 11:30:48;;;;;;;1.50;1.00;;;14.90;97.50;;;;;;5362398;26;20721;-84
2024/04/26 11:33:20;;;;;;;1.50;1.00;;;14.80;96.40;;;;;;5376352;26;20477;-80
2024/04/26 11:35:48;;;;;;;1.50;1.00;;;14.80;98.20;;;;;;5379914;26;20476;-82
2024/04/26 11:38:17;;;;;;;1.50;1.00;;;14.70;98.20;;;;;;5369325;26;20603;-82
2024/04/26 11:40:47;;;;;;;1.47;0.90;;;14.70;98.20;;;;;;5372367;26;20518;-83
2024/04/26 11:43:15;;;;;;;1.43;0.90;;;14.70;98.20;;;;;;5327274;26;20585;-82
2024/04/26 11:45:44;;;;;;;1.50;1.00;;;14.70;98.20;;;;;;5368785;26;20576;-82
2024/04/26 11:48:12;;;;;;;1.50;1.00;;;14.60;98.20;;;;;;5364548;26;20494;-83
2024/04/26 11:50:47;;;;;;;1.43;0.90;;;14.60;98.20;;;;;;5377393;26;20979;-81
2024/04/26 11:53:15;;;;;;;1.50;1.00;;;14.60;98.20;;;;;;5319700;26;20539;-81
2024/04/26 11:55:46;;;;;;;1.50;1.00;;;14.70;98.20;;;;;;5373043;26;20511;-80
2024/04/26 11:58:14;;;;;;;1.40;0.90;;;14.70;98.20;;;;;;5333733;26;20898;-80
2024/04/26 12:00:43;;;;;;;1.40;0.90;;;14.80;98.20;;;;;;5372936;26;20564;-81
2024/04/26 12:03:11;;;;;;;1.50;1.00;;;14.90;98.20;;;;;;5340136;26;21122;-81
2024/04/26 12:05:44;;;;;;;1.43;1.00;;;15.00;98.20;;;;;;5370728;26;20469;-80
2024/04/26 12:08:13;;;;;;;1.43;1.00;;;15.20;98.20;;;;;;5327718;26;20487;-82
2024/04/26 12:10:41;;;;;;;1.43;0.90;;;15.40;97.90;;;;;;5365361;26;20480;-81
2024/04/26 12:13:10;;;;;;;1.50;1.00;;;15.50;96.80;;;;;;5370132;26;20488;-80
2024/04/26 12:15:39;;;;;;;1.50;1.00;;;15.60;96.80;;;;;;5371857;26;20465;-81
2024/04/26 12:18:10;;;;;;;1.43;0.90;;;15.70;96.40;;;;;;5342414;26;20564;-81
2024/04/26 12:20:38;;;;;;;1.50;1.00;;;15.70;95.60;;;;;;5364926;26;20513;-82
2024/04/26 12:23:09;;;;;;;1.47;0.90;;;15.60;96.20;;;;;;5361367;26;20545;-80
2024/04/26 12:25:38;;;;;;;1.40;0.90;;;15.50;95.80;;;;;;5367770;26;21043;-81
2024/04/26 12:28:09;;;;;;;1.50;0.90;;;15.50;97.20;;;;;;5354144;26;20484;-81
2024/04/26 12:30:39;;;;;;;1.43;0.90;;;15.60;96.10;;;;;;5352860;26;20465;-80
2024/04/26 12:33:09;;;;;;;1.50;1.00;;;15.60;96.40;;;;;;5348894;26;20544;-82
2024/04/26 12:35:38;;;;;;;1.50;0.90;;;15.70;95.30;;;;;;5372348;26;20472;-80
2024/04/26 12:38:09;;;;;;;1.50;0.97;;;15.60;96.10;;;;;;5356330;26;20634;-81
2024/04/26 12:40:38;;;;;;;1.50;1.00;;;15.70;95.90;;;;;;5362422;26;20743;-82
2024/04/26 12:43:06;;;;;;;1.50;1.00;;;15.70;94.40;;;;;;5349229;26;20536;-81
2024/04/26 12:45:34;;;;;;;1.47;0.93;;;15.80;94.40;;;;;;5355550;26;20476;-81
2024/04/26 12:48:03;;;;;;;1.50;1.00;;;15.80;95.20;;;;;;5353890;26;20581;-81
2024/04/26 12:50:31;;;;;;;1.43;0.90;;;15.80;95.70;;;;;;5370556;26;20530;-82
2024/04/26 12:53:00;;;;;;;1.47;0.90;;;15.90;95.70;;;;;;5357490;26;20545;-82
2024/04/26 12:55:31;;;;;;;1.47;0.90;;;15.90;95.30;;;;;;5369787;26;20979;-79
2024/04/26 12:57:59;;;;;;;1.50;0.90;;;15.90;95.00;;;;;;5364159;26;20535;-79
2024/04/26 13:00:28;;;;;;;1.50;0.90;;;15.90;94.40;;;;;;5366910;26;21096;-81
2024/04/26 13:02:56;;;;;;;1.50;0.90;;;15.90;95.20;;;;;;5359215;26;20529;-81